createdAt,value
2018-12-13T00:00:35.301Z,3.84
2018-12-13T00:01:35.272Z,3.88
2018-12-13T00:02:35.221Z,3.87
2018-12-13T00:03:35.183Z,3.83
2018-12-13T00:04:35.152Z,3.76
2018-12-13T00:05:35.108Z,3.78
2018-12-13T00:06:35.077Z,3.77
2018-12-13T00:07:35.047Z,3.63
2018-12-13T00:08:34.995Z,3.65
2018-12-13T00:09:34.958Z,3.59
2018-12-13T00:10:34.921Z,3.60
2018-12-13T00:11:34.873Z,3.59
2018-12-13T00:12:34.841Z,3.60
2018-12-13T00:13:34.801Z,3.55
2018-12-13T00:14:34.758Z,3.55
2018-12-13T00:15:34.732Z,3.47
2018-12-13T00:16:34.688Z,3.58
2018-12-13T00:17:34.642Z,3.51
2018-12-13T00:18:34.608Z,3.41
2018-12-13T00:19:34.574Z,3.42
2018-12-13T00:20:34.534Z,3.51
2018-12-13T00:21:34.488Z,3.47
2018-12-13T00:22:34.456Z,3.36
2018-12-13T00:23:34.411Z,3.31
2018-12-13T00:24:34.391Z,3.32
2018-12-13T00:25:34.343Z,3.40
2018-12-13T00:26:34.297Z,3.37
2018-12-13T00:27:34.261Z,3.28
2018-12-13T00:28:34.222Z,3.36
2018-12-13T00:29:34.189Z,3.34
2018-12-13T00:30:34.161Z,3.34
2018-12-13T00:31:34.101Z,3.37
2018-12-13T00:32:34.064Z,3.41
2018-12-13T00:33:34.031Z,3.26
2018-12-13T00:34:33.994Z,3.31
2018-12-13T00:35:33.956Z,3.37
2018-12-13T00:36:39.497Z,3.31
2018-12-13T00:37:33.874Z,3.40
2018-12-13T00:38:33.828Z,3.29
2018-12-13T00:39:33.793Z,3.29
2018-12-13T00:40:33.761Z,3.31
2018-12-13T00:41:33.739Z,3.41
2018-12-13T00:42:33.679Z,3.34
2018-12-13T00:43:33.637Z,3.40
2018-12-13T00:44:33.614Z,3.25
2018-12-13T00:45:33.559Z,3.29
2018-12-13T00:46:33.530Z,3.34
2018-12-13T00:47:33.482Z,3.36
2018-12-13T00:48:33.458Z,3.34
2018-12-13T00:49:33.431Z,3.29
2018-12-13T00:50:33.368Z,3.28
2018-12-13T00:51:33.330Z,3.25
2018-12-13T00:52:33.293Z,3.28
2018-12-13T00:53:33.259Z,3.26
2018-12-13T00:54:33.218Z,3.28
2018-12-13T00:55:33.185Z,3.29
2018-12-13T00:56:33.134Z,3.32
2018-12-13T00:57:33.103Z,3.34
2018-12-13T00:58:33.064Z,3.28
2018-12-13T00:59:33.015Z,3.32
2018-12-13T01:00:32.984Z,3.31
2018-12-13T01:01:32.943Z,3.34
2018-12-13T01:02:32.900Z,3.25
2018-12-13T01:03:32.870Z,3.25
2018-12-13T01:04:32.833Z,3.18
2018-12-13T01:05:32.794Z,3.19
2018-12-13T01:06:32.754Z,3.25
2018-12-13T01:07:32.727Z,3.16
2018-12-13T01:08:32.670Z,3.16
2018-12-13T01:09:32.645Z,3.14
2018-12-13T01:10:32.600Z,3.18
2018-12-13T01:11:32.564Z,3.14
2018-12-13T01:12:32.518Z,3.18
2018-12-13T01:13:32.481Z,3.16
2018-12-13T01:14:32.444Z,3.10
2018-12-13T01:15:32.405Z,3.14
2018-12-13T01:16:32.374Z,3.19
2018-12-13T01:17:32.326Z,3.21
2018-12-13T01:18:32.288Z,3.18
2018-12-13T01:19:32.251Z,3.11
2018-12-13T01:20:32.214Z,3.18
2018-12-13T01:21:32.183Z,3.14
2018-12-13T01:22:32.134Z,3.23
2018-12-13T01:23:32.095Z,3.25
2018-12-13T01:24:32.064Z,3.14
2018-12-13T01:25:32.025Z,3.21
2018-12-13T01:26:31.982Z,3.25
2018-12-13T01:27:31.955Z,3.25
2018-12-13T01:28:31.906Z,3.25
2018-12-13T01:29:31.861Z,3.29
2018-12-13T01:30:31.827Z,3.26
2018-12-13T01:31:31.791Z,3.41
2018-12-13T01:32:31.750Z,3.32
2018-12-13T01:33:31.706Z,3.40
2018-12-13T01:34:31.677Z,3.32
2018-12-13T01:35:31.630Z,3.31
2018-12-13T01:36:31.590Z,3.44
2018-12-13T01:37:31.563Z,3.37
2018-12-13T01:38:31.518Z,3.47
2018-12-13T01:39:31.479Z,3.48
2018-12-13T01:40:31.442Z,3.44
2018-12-13T01:41:31.403Z,3.51
2018-12-13T01:42:31.361Z,3.58
2018-12-13T01:43:31.338Z,3.58
2018-12-13T01:44:31.287Z,3.56
2018-12-13T01:45:31.244Z,3.45
2018-12-13T01:46:31.206Z,3.56
2018-12-13T01:47:31.168Z,3.48
2018-12-13T01:48:31.131Z,3.48
2018-12-13T01:49:31.088Z,3.45
2018-12-13T01:50:31.048Z,3.56
2018-12-13T01:51:31.014Z,3.51
2018-12-13T01:52:30.982Z,3.45
2018-12-13T01:53:30.942Z,3.45
2018-12-13T01:54:30.897Z,3.45
2018-12-13T01:55:30.862Z,3.60
2018-12-13T01:56:30.822Z,3.53
2018-12-13T01:57:30.783Z,3.51
2018-12-13T01:58:30.744Z,3.55
2018-12-13T01:59:30.711Z,3.53
2018-12-13T02:00:30.671Z,3.48
2018-12-13T02:01:30.624Z,3.58
2018-12-13T02:02:30.592Z,3.58
2018-12-13T02:03:30.554Z,3.51
2018-12-13T02:04:30.588Z,3.51
2018-12-13T02:05:30.473Z,3.58
2018-12-13T02:06:30.427Z,3.55
2018-12-13T02:07:30.394Z,3.51
2018-12-13T02:08:30.362Z,3.55
2018-12-13T02:09:30.328Z,3.50
2018-12-13T02:10:30.277Z,3.58
2018-12-13T02:11:30.257Z,3.56
2018-12-13T02:12:30.207Z,3.55
2018-12-13T02:13:30.181Z,3.51
2018-12-13T02:14:30.140Z,3.50
2018-12-13T02:15:30.097Z,3.51
2018-12-13T02:16:30.047Z,3.45
2018-12-13T02:17:30.012Z,3.47
2018-12-13T02:18:29.978Z,3.51
2018-12-13T02:19:29.933Z,3.50
2018-12-13T02:20:29.899Z,3.55
2018-12-13T02:21:29.860Z,3.55
2018-12-13T02:22:29.818Z,3.45
2018-12-13T02:23:29.779Z,3.44
2018-12-13T02:24:29.742Z,3.29
2018-12-13T02:25:29.703Z,3.26
2018-12-13T02:26:29.669Z,3.32
2018-12-13T02:27:29.633Z,3.29
2018-12-13T02:28:29.589Z,3.41
2018-12-13T02:29:29.549Z,3.41
2018-12-13T02:30:29.518Z,3.36
2018-12-13T02:31:29.470Z,3.34
2018-12-13T02:32:29.430Z,3.32
2018-12-13T02:33:29.397Z,3.40
2018-12-13T02:34:29.351Z,3.32
2018-12-13T02:35:29.319Z,3.28
2018-12-13T02:36:29.279Z,3.40
2018-12-13T02:37:29.245Z,3.25
2018-12-13T02:38:29.202Z,3.34
2018-12-13T02:39:29.185Z,3.29
2018-12-13T02:40:29.126Z,3.26
2018-12-13T02:41:29.086Z,3.23
2018-12-13T02:42:29.042Z,3.26
2018-12-13T02:43:29.011Z,3.25
2018-12-13T02:44:28.972Z,3.18
2018-12-13T02:45:28.938Z,3.18
2018-12-13T02:46:28.893Z,3.18
2018-12-13T02:47:28.873Z,3.19
2018-12-13T02:48:28.815Z,3.11
2018-12-13T02:49:28.771Z,3.16
2018-12-13T02:50:28.726Z,3.08
2018-12-13T02:51:28.699Z,3.16
2018-12-13T02:52:28.656Z,3.08
2018-12-13T02:53:28.626Z,3.07
2018-12-13T02:54:28.657Z,3.04
2018-12-13T02:55:28.546Z,3.07
2018-12-13T02:56:28.511Z,3.08
2018-12-13T02:57:28.465Z,3.07
2018-12-13T02:58:28.435Z,3.10
2018-12-13T02:59:28.391Z,3.08
2018-12-13T03:00:28.352Z,3.08
2018-12-13T03:01:28.310Z,3.04
2018-12-13T03:02:28.271Z,3.04
2018-12-13T03:03:28.244Z,3.10
2018-12-13T03:04:28.197Z,3.03
2018-12-13T03:05:28.152Z,3.04
2018-12-13T03:06:28.109Z,3.08
2018-12-13T03:07:28.079Z,3.05
2018-12-13T03:08:28.037Z,2.98
2018-12-13T03:09:28.004Z,3.01
2018-12-13T03:10:27.959Z,2.90
2018-12-13T03:11:27.925Z,3.04
2018-12-13T03:12:27.889Z,3.01
2018-12-13T03:13:27.853Z,2.97
2018-12-13T03:14:27.801Z,2.92
2018-12-13T03:15:27.770Z,2.89
2018-12-13T03:16:27.727Z,2.98
2018-12-13T03:17:27.686Z,2.90
2018-12-13T03:18:27.651Z,2.83
2018-12-13T03:19:27.616Z,2.80
2018-12-13T03:20:27.578Z,2.85
2018-12-13T03:21:27.551Z,2.82
2018-12-13T03:22:27.506Z,2.87
2018-12-13T03:23:27.458Z,2.87
2018-12-13T03:24:27.422Z,2.89
2018-12-13T03:25:27.386Z,2.82
2018-12-13T03:26:27.347Z,2.82
2018-12-13T03:27:27.311Z,2.83
2018-12-13T03:28:27.266Z,2.89
2018-12-13T03:29:27.230Z,2.77
2018-12-13T03:30:27.201Z,2.79
2018-12-13T03:31:27.144Z,2.83
2018-12-13T03:32:27.106Z,2.77
2018-12-13T03:33:27.069Z,2.82
2018-12-13T03:34:27.026Z,2.80
2018-12-13T03:35:26.998Z,2.82
2018-12-13T03:36:26.953Z,2.86
2018-12-13T03:37:26.913Z,2.86
2018-12-13T03:38:26.876Z,2.77
2018-12-13T03:39:26.840Z,2.85
2018-12-13T03:40:26.802Z,2.86
2018-12-13T03:41:26.759Z,2.85
2018-12-13T03:42:26.717Z,2.85
2018-12-13T03:43:26.677Z,2.77
2018-12-13T03:44:26.639Z,2.82
2018-12-13T03:45:26.604Z,2.79
2018-12-13T03:46:26.566Z,2.79
2018-12-13T03:47:26.526Z,2.75
2018-12-13T03:48:26.491Z,2.71
2018-12-13T03:49:26.452Z,2.75
2018-12-13T03:50:26.419Z,2.72
2018-12-13T03:51:26.375Z,2.77
2018-12-13T03:52:26.330Z,2.74
2018-12-13T03:53:26.313Z,2.67
2018-12-13T03:54:26.251Z,2.64
2018-12-13T03:55:26.212Z,2.68
2018-12-13T03:56:26.178Z,2.56
2018-12-13T03:57:26.129Z,2.61
2018-12-13T03:58:26.093Z,2.61
2018-12-13T03:59:26.067Z,2.65
2018-12-13T04:00:26.017Z,2.62
2018-12-13T04:01:25.977Z,2.62
2018-12-13T04:02:25.939Z,2.56
2018-12-13T04:03:25.900Z,2.56
2018-12-13T04:04:25.862Z,2.53
2018-12-13T04:05:25.837Z,2.57
2018-12-13T04:06:25.782Z,2.54
2018-12-13T04:07:27.797Z,2.46
2018-12-13T04:08:25.709Z,2.51
2018-12-13T04:09:25.678Z,2.51
2018-12-13T04:10:25.619Z,2.47
2018-12-13T04:11:25.585Z,2.43
2018-12-13T04:12:25.557Z,2.33
2018-12-13T04:13:25.515Z,2.36
2018-12-13T04:14:25.519Z,2.32
2018-12-13T04:15:25.434Z,2.31
2018-12-13T04:16:25.390Z,2.26
2018-12-13T04:17:25.353Z,2.35
2018-12-13T04:18:25.316Z,2.32
2018-12-13T04:19:25.287Z,2.32
2018-12-13T04:20:25.238Z,2.29
2018-12-13T04:21:25.202Z,2.28
2018-12-13T04:22:25.162Z,2.29
2018-12-13T04:23:25.127Z,2.29
2018-12-13T04:24:25.083Z,2.29
2018-12-13T04:25:25.039Z,2.26
2018-12-13T04:26:25.020Z,2.28
2018-12-13T04:27:24.963Z,2.24
2018-12-13T04:28:24.933Z,2.11
2018-12-13T04:29:24.879Z,2.25
2018-12-13T04:30:24.866Z,2.24
2018-12-13T04:31:24.812Z,2.18
2018-12-13T04:32:24.771Z,2.18
2018-12-13T04:33:24.734Z,2.20
2018-12-13T04:34:24.694Z,2.13
2018-12-13T04:35:24.650Z,2.13
2018-12-13T04:36:24.614Z,2.24
2018-12-13T04:37:24.566Z,2.20
2018-12-13T04:38:24.547Z,2.25
2018-12-13T04:39:24.496Z,2.17
2018-12-13T04:40:24.452Z,2.13
2018-12-13T04:41:24.423Z,2.17
2018-12-13T04:42:24.384Z,2.17
2018-12-13T04:43:24.332Z,2.13
2018-12-13T04:44:24.303Z,2.08
2018-12-13T04:45:24.265Z,2.15
2018-12-13T04:46:24.221Z,2.13
2018-12-13T04:47:24.184Z,2.11
2018-12-13T04:48:24.150Z,2.07
2018-12-13T04:49:24.096Z,2.04
2018-12-13T04:50:24.061Z,2.00
2018-12-13T04:51:24.015Z,2.02
2018-12-13T04:52:23.986Z,2.04
2018-12-13T04:53:23.945Z,2.06
2018-12-13T04:54:23.905Z,2.02
2018-12-13T04:55:23.864Z,2.07
2018-12-13T04:56:23.828Z,2.08
2018-12-13T04:57:23.790Z,2.00
2018-12-13T04:58:23.742Z,2.11
2018-12-13T04:59:23.711Z,2.13
2018-12-13T05:00:23.669Z,2.14
2018-12-13T05:01:23.630Z,2.06
2018-12-13T05:02:23.590Z,2.02
2018-12-13T05:03:23.544Z,2.08
2018-12-13T05:04:23.515Z,2.07
2018-12-13T05:05:23.475Z,2.08
2018-12-13T05:06:23.426Z,2.00
2018-12-13T05:07:23.399Z,2.04
2018-12-13T05:08:23.357Z,2.00
2018-12-13T05:09:23.309Z,2.13
2018-12-13T05:10:23.277Z,2.02
2018-12-13T05:11:23.235Z,2.00
2018-12-13T05:12:23.191Z,2.02
2018-12-13T05:13:23.164Z,2.06
2018-12-13T05:14:23.125Z,1.99
2018-12-13T05:15:23.082Z,1.97
2018-12-13T05:16:23.040Z,2.04
2018-12-13T05:17:23.624Z,2.10
2018-12-13T05:18:22.960Z,2.02
2018-12-13T05:19:22.921Z,2.02
2018-12-13T05:20:22.901Z,1.99
2018-12-13T05:21:22.857Z,2.14
2018-12-13T05:22:22.810Z,2.02
2018-12-13T05:23:22.770Z,1.97
2018-12-13T05:24:22.725Z,2.00
2018-12-13T05:25:22.695Z,2.07
2018-12-13T05:26:22.644Z,2.06
2018-12-13T05:27:22.610Z,1.95
2018-12-13T05:28:22.568Z,2.02
2018-12-13T05:29:22.541Z,2.11
2018-12-13T05:30:22.512Z,2.02
2018-12-13T05:31:22.466Z,1.97
2018-12-13T05:32:22.408Z,2.10
2018-12-13T05:33:22.372Z,2.06
2018-12-13T05:34:22.337Z,2.15
2018-12-13T05:35:22.298Z,2.04
2018-12-13T05:36:22.262Z,2.06
2018-12-13T05:37:22.218Z,2.08
2018-12-13T05:38:22.183Z,2.14
2018-12-13T05:39:22.136Z,2.04
2018-12-13T05:40:22.154Z,2.10
2018-12-13T05:41:22.065Z,2.02
2018-12-13T05:42:22.016Z,2.11
2018-12-13T05:43:21.977Z,2.00
2018-12-13T05:44:21.942Z,2.13
2018-12-13T05:45:21.902Z,1.99
2018-12-13T05:46:21.868Z,1.95
2018-12-13T05:47:21.823Z,1.89
2018-12-13T05:48:21.788Z,1.99
2018-12-13T05:49:21.756Z,1.99
2018-12-13T05:50:21.760Z,1.97
2018-12-13T05:51:21.677Z,2.02
2018-12-13T05:52:21.634Z,2.00
2018-12-13T05:53:21.584Z,1.92
2018-12-13T05:54:21.546Z,1.99
2018-12-13T05:55:21.519Z,2.00
2018-12-13T05:56:21.468Z,1.97
2018-12-13T05:57:21.438Z,1.97
2018-12-13T05:58:21.383Z,1.95
2018-12-13T05:59:21.349Z,2.00
2018-12-13T06:00:21.322Z,2.17
2018-12-13T06:01:21.278Z,1.97
2018-12-13T06:02:21.238Z,2.10
2018-12-13T06:03:21.203Z,2.11
2018-12-13T06:04:21.173Z,2.06
2018-12-13T06:05:21.114Z,1.95
2018-12-13T06:06:21.077Z,2.11
2018-12-13T06:07:21.050Z,2.07
2018-12-13T06:08:20.998Z,2.06
2018-12-13T06:09:20.965Z,2.07
2018-12-13T06:10:20.919Z,2.06
2018-12-13T06:11:20.880Z,2.11
2018-12-13T06:12:20.839Z,1.97
2018-12-13T06:13:20.798Z,1.99
2018-12-13T06:14:20.767Z,2.04
2018-12-13T06:15:20.719Z,1.95
2018-12-13T06:16:20.685Z,1.99
2018-12-13T06:17:20.646Z,2.07
2018-12-13T06:18:20.611Z,2.02
2018-12-13T06:19:26.566Z,2.11
2018-12-13T06:20:20.542Z,2.00
2018-12-13T06:21:20.494Z,2.06
2018-12-13T06:22:20.446Z,2.00
2018-12-13T06:23:20.404Z,1.97
2018-12-13T06:24:20.371Z,1.97
2018-12-13T06:25:20.332Z,2.00
2018-12-13T06:26:20.294Z,2.00
2018-12-13T06:27:20.242Z,1.97
2018-12-13T06:28:20.211Z,1.99
2018-12-13T06:29:20.179Z,2.00
2018-12-13T06:30:20.125Z,2.00
2018-12-13T06:31:20.097Z,2.06
2018-12-13T06:32:20.055Z,2.00
2018-12-13T06:33:24.783Z,1.99
2018-12-13T06:34:19.980Z,1.91
2018-12-13T06:35:19.939Z,2.00
2018-12-13T06:36:19.891Z,1.94
2018-12-13T06:37:19.875Z,1.92
2018-12-13T06:38:19.821Z,1.97
2018-12-13T06:39:19.789Z,1.94
2018-12-13T06:40:19.756Z,1.85
2018-12-13T06:41:19.704Z,1.91
2018-12-13T06:42:19.657Z,1.76
2018-12-13T06:43:19.617Z,1.91
2018-12-13T06:44:19.586Z,1.97
2018-12-13T06:45:19.545Z,1.88
2018-12-13T06:46:19.506Z,1.94
2018-12-13T06:47:19.465Z,1.99
2018-12-13T06:48:19.428Z,1.95
2018-12-13T06:49:19.390Z,1.94
2018-12-13T06:50:19.346Z,2.00
2018-12-13T06:51:20.151Z,1.87
2018-12-13T06:52:19.262Z,1.95
2018-12-13T06:53:19.240Z,1.95
2018-12-13T06:54:19.186Z,1.97
2018-12-13T06:55:19.151Z,2.02
2018-12-13T06:56:19.109Z,1.99
2018-12-13T06:57:19.076Z,1.97
2018-12-13T06:58:19.030Z,1.95
2018-12-13T06:59:18.987Z,1.92
2018-12-13T07:00:18.957Z,2.00
2018-12-13T07:01:18.923Z,1.99
2018-12-13T07:02:18.883Z,1.91
2018-12-13T07:03:18.842Z,1.89
2018-12-13T07:04:18.796Z,1.99
2018-12-13T07:05:18.751Z,1.91
2018-12-13T07:06:18.718Z,1.91
2018-12-13T07:07:18.678Z,1.91
2018-12-13T07:08:18.643Z,1.91
2018-12-13T07:09:18.597Z,1.97
2018-12-13T07:10:18.562Z,1.95
2018-12-13T07:11:18.516Z,2.00
2018-12-13T07:12:18.476Z,1.91
2018-12-13T07:13:18.438Z,1.92
2018-12-13T07:14:18.403Z,2.02
2018-12-13T07:15:18.375Z,1.95
2018-12-13T07:16:18.317Z,1.94
2018-12-13T07:17:18.282Z,2.02
2018-12-13T07:18:18.256Z,1.91
2018-12-13T07:19:18.203Z,1.92
2018-12-13T07:20:18.177Z,1.94
2018-12-13T07:21:18.116Z,1.92
2018-12-13T07:22:18.082Z,1.88
2018-12-13T07:23:18.038Z,1.85
2018-12-13T07:24:18.011Z,1.97
2018-12-13T07:25:17.963Z,1.99
2018-12-13T07:26:17.933Z,1.99
2018-12-13T07:27:17.902Z,1.92
2018-12-13T07:28:17.854Z,1.91
2018-12-13T07:29:17.824Z,1.94
2018-12-13T07:30:17.783Z,1.94
2018-12-13T07:31:17.728Z,1.99
2018-12-13T07:32:17.688Z,2.00
2018-12-13T07:33:17.649Z,1.91
2018-12-13T07:34:17.603Z,2.02
2018-12-13T07:35:17.567Z,2.06
2018-12-13T07:36:17.540Z,2.00
2018-12-13T07:37:17.504Z,1.91
2018-12-13T07:38:17.453Z,2.00
2018-12-13T07:39:17.417Z,2.06
2018-12-13T07:40:17.387Z,2.08
2018-12-13T07:41:17.338Z,1.97
2018-12-13T07:42:17.298Z,2.02
2018-12-13T07:43:17.254Z,2.06
2018-12-13T07:44:17.217Z,2.04
2018-12-13T07:45:17.178Z,2.00
2018-12-13T07:46:17.148Z,1.95
2018-12-13T07:47:17.104Z,1.91
2018-12-13T07:48:17.049Z,1.95
2018-12-13T07:49:17.018Z,2.00
2018-12-13T07:50:16.983Z,1.97
2018-12-13T07:51:16.937Z,2.08
2018-12-13T07:52:16.905Z,2.10
2018-12-13T07:53:16.860Z,1.99
2018-12-13T07:54:16.839Z,1.95
2018-12-13T07:55:16.785Z,1.95
2018-12-13T07:56:16.749Z,2.06
2018-12-13T07:57:16.717Z,2.15
2018-12-13T07:58:16.663Z,2.11
2018-12-13T07:59:16.628Z,2.07
2018-12-13T08:00:16.591Z,2.06
2018-12-13T08:01:16.546Z,2.15
2018-12-13T08:02:16.505Z,2.02
2018-12-13T08:03:16.495Z,1.95
2018-12-13T08:04:16.434Z,2.02
2018-12-13T08:05:16.405Z,2.04
2018-12-13T08:06:16.343Z,2.07
2018-12-13T08:07:16.320Z,2.08
2018-12-13T08:08:20.752Z,2.07
2018-12-13T08:09:16.239Z,1.99
2018-12-13T08:10:16.186Z,2.08
2018-12-13T08:11:16.163Z,2.13
2018-12-13T08:12:16.122Z,2.08
2018-12-13T08:13:16.099Z,2.13
2018-12-13T08:14:16.042Z,2.15
2018-12-13T08:15:15.998Z,2.13
2018-12-13T08:16:15.966Z,2.18
2018-12-13T08:17:15.917Z,2.22
2018-12-13T08:18:15.886Z,2.24
2018-12-13T08:19:15.836Z,2.13
2018-12-13T08:20:15.802Z,2.17
2018-12-13T08:21:15.762Z,2.11
2018-12-13T08:22:15.721Z,2.24
2018-12-13T08:23:15.684Z,2.02
2018-12-13T08:24:15.640Z,2.13
2018-12-13T08:25:15.607Z,2.14
2018-12-13T08:26:15.567Z,2.31
2018-12-13T08:27:15.531Z,2.25
2018-12-13T08:28:15.480Z,2.25
2018-12-13T08:29:15.442Z,2.28
2018-12-13T08:30:15.410Z,2.24
2018-12-13T08:31:15.372Z,2.31
2018-12-13T08:32:15.336Z,2.26
2018-12-13T08:33:15.287Z,2.25
2018-12-13T08:34:15.257Z,2.36
2018-12-13T08:35:15.221Z,2.38
2018-12-13T08:36:15.172Z,2.43
2018-12-13T08:37:15.131Z,2.43
2018-12-13T08:38:15.116Z,2.39
2018-12-13T08:39:15.082Z,2.43
2018-12-13T08:40:15.012Z,2.47
2018-12-13T08:41:14.981Z,2.39
2018-12-13T08:42:14.926Z,2.44
2018-12-13T08:43:14.891Z,2.42
2018-12-13T08:44:14.872Z,2.43
2018-12-13T08:45:14.818Z,2.43
2018-12-13T08:46:14.780Z,2.53
2018-12-13T08:47:14.742Z,2.49
2018-12-13T08:48:14.703Z,2.57
2018-12-13T08:49:14.662Z,2.60
2018-12-13T08:50:14.630Z,2.64
2018-12-13T08:51:14.587Z,2.62
2018-12-13T08:52:14.538Z,2.61
2018-12-13T08:53:14.511Z,2.60
2018-12-13T08:54:14.467Z,2.65
2018-12-13T08:55:14.434Z,2.61
2018-12-13T08:56:14.393Z,2.67
2018-12-13T08:57:14.343Z,2.69
2018-12-13T08:58:14.317Z,2.75
2018-12-13T08:59:14.272Z,2.77
2018-12-13T09:00:14.234Z,2.74
2018-12-13T09:01:14.198Z,2.69
2018-12-13T09:02:14.161Z,2.72
2018-12-13T09:03:14.455Z,2.80
2018-12-13T09:04:14.077Z,2.85
2018-12-13T09:05:14.033Z,2.80
2018-12-13T09:06:13.999Z,2.79
2018-12-13T09:07:13.962Z,2.77
2018-12-13T09:08:13.928Z,2.92
2018-12-13T09:09:13.883Z,2.86
2018-12-13T09:10:13.846Z,2.92
2018-12-13T09:11:13.805Z,2.95
2018-12-13T09:12:13.768Z,2.98
2018-12-13T09:13:13.727Z,2.95
2018-12-13T09:14:13.684Z,2.89
2018-12-13T09:15:13.657Z,2.89
2018-12-13T09:16:13.619Z,3.04
2018-12-13T09:17:13.579Z,3.07
2018-12-13T09:18:13.531Z,3.08
2018-12-13T09:19:13.492Z,3.05
2018-12-13T09:20:13.454Z,3.10
2018-12-13T09:21:13.415Z,3.18
2018-12-13T09:22:13.373Z,3.18
2018-12-13T09:23:13.345Z,3.19
2018-12-13T09:24:13.313Z,3.21
2018-12-13T09:25:13.266Z,3.25
2018-12-13T09:26:13.221Z,3.25
2018-12-13T09:27:13.185Z,3.23
2018-12-13T09:28:13.166Z,3.25
2018-12-13T09:29:13.103Z,3.37
2018-12-13T09:30:13.078Z,3.34
2018-12-13T09:31:13.030Z,3.41
2018-12-13T09:32:12.998Z,3.44
2018-12-13T09:33:12.974Z,3.45
2018-12-13T09:34:12.915Z,3.47
2018-12-13T09:35:12.873Z,3.53
2018-12-13T09:36:12.841Z,3.53
2018-12-13T09:37:12.805Z,3.62
2018-12-13T09:38:12.759Z,3.65
2018-12-13T09:39:12.719Z,3.92
2018-12-13T09:40:12.695Z,4.24
2018-12-13T09:41:12.654Z,4.40
2018-12-13T09:42:12.614Z,4.58
2018-12-13T09:43:12.587Z,4.59
2018-12-13T09:44:12.541Z,4.86
2018-12-13T09:45:12.489Z,5.14
2018-12-13T09:46:12.456Z,5.50
2018-12-13T09:47:12.424Z,5.87
2018-12-13T09:48:12.395Z,6.04
2018-12-13T09:49:12.355Z,6.39
2018-12-13T09:50:12.315Z,6.52
2018-12-13T09:51:12.279Z,6.57
2018-12-13T09:52:12.246Z,6.74
2018-12-13T09:53:12.213Z,7.05
2018-12-13T09:54:12.180Z,7.43
2018-12-13T09:55:12.142Z,7.53
2018-12-13T09:56:12.146Z,7.83
2018-12-13T09:57:12.086Z,7.54
2018-12-13T09:58:12.035Z,7.82
2018-12-13T09:59:12.002Z,8.03
2018-12-13T10:00:11.976Z,8.60
2018-12-13T10:01:11.931Z,8.73
2018-12-13T10:02:12.020Z,9.23
2018-12-13T10:03:11.886Z,8.13
2018-12-13T10:04:11.841Z,7.97
2018-12-13T10:05:11.812Z,8.45
2018-12-13T10:06:11.776Z,8.76
2018-12-13T10:07:11.742Z,9.13
2018-12-13T10:08:11.721Z,9.46
2018-12-13T10:09:11.675Z,9.79
2018-12-13T10:10:11.642Z,9.13
2018-12-13T10:11:11.606Z,9.56
2018-12-13T10:12:11.582Z,9.76
2018-12-13T10:13:11.548Z,9.72
2018-12-13T10:14:11.511Z,10.09
2018-12-13T10:15:11.477Z,10.26
2018-12-13T10:16:11.448Z,10.44
2018-12-13T10:17:11.430Z,10.54
2018-12-13T10:18:11.382Z,10.75
2018-12-13T10:19:11.360Z,9.92
2018-12-13T10:20:11.336Z,9.76
2018-12-13T10:21:11.290Z,9.94
2018-12-13T10:22:11.786Z,9.43
2018-12-13T10:23:11.238Z,9.31
2018-12-13T10:24:11.212Z,9.34
2018-12-13T10:25:11.167Z,9.84
2018-12-13T10:26:11.137Z,10.26
2018-12-13T10:27:11.107Z,10.78
2018-12-13T10:28:11.088Z,11.12
2018-12-13T10:29:11.042Z,11.48
2018-12-13T10:30:11.028Z,11.68
2018-12-13T10:31:10.993Z,12.02
2018-12-13T10:32:10.952Z,11.81
2018-12-13T10:33:10.923Z,12.00
2018-12-13T10:34:10.887Z,11.88
2018-12-13T10:35:11.543Z,11.44
2018-12-13T10:36:10.833Z,11.23
2018-12-13T10:37:10.806Z,11.33
2018-12-13T10:38:10.773Z,10.67
2018-12-13T10:39:10.742Z,10.41
2018-12-13T10:40:10.710Z,10.20
2018-12-13T10:41:10.697Z,10.13
2018-12-13T10:42:10.653Z,10.19
2018-12-13T10:43:10.623Z,10.86
2018-12-13T10:44:10.597Z,11.44
2018-12-13T10:45:10.616Z,11.08
2018-12-13T10:46:10.532Z,11.59
2018-12-13T10:47:10.502Z,11.97
2018-12-13T10:48:10.472Z,10.81
2018-12-13T10:49:10.437Z,10.69
2018-12-13T10:50:10.412Z,10.72
2018-12-13T10:51:10.382Z,11.43
2018-12-13T10:52:10.347Z,11.77
2018-12-13T10:53:10.333Z,12.10
2018-12-13T10:54:10.312Z,12.21
2018-12-13T10:55:10.273Z,11.87
2018-12-13T10:56:10.242Z,11.83
2018-12-13T10:57:10.234Z,12.04
2018-12-13T10:58:10.172Z,12.53
2018-12-13T10:59:10.151Z,12.78
2018-12-13T11:00:10.117Z,13.08
2018-12-13T11:01:10.091Z,12.91
2018-12-13T11:02:10.061Z,12.31
2018-12-13T11:03:10.031Z,12.50
2018-12-13T11:04:09.998Z,12.94
2018-12-13T11:05:09.973Z,13.27
2018-12-13T11:06:09.952Z,13.56
2018-12-13T11:07:09.921Z,13.74
2018-12-13T11:08:09.888Z,13.72
2018-12-13T11:09:09.872Z,13.79
2018-12-13T11:10:09.843Z,13.79
2018-12-13T11:11:09.802Z,13.95
2018-12-13T11:12:09.773Z,14.20
2018-12-13T11:13:09.742Z,14.22
2018-12-13T11:14:09.726Z,14.25
2018-12-13T11:15:09.684Z,14.33
2018-12-13T11:16:09.650Z,14.54
2018-12-13T11:17:09.657Z,14.70
2018-12-13T11:18:09.625Z,15.06
2018-12-13T11:19:09.572Z,15.04
2018-12-13T11:20:09.554Z,14.96
2018-12-13T11:21:09.517Z,14.73
2018-12-13T11:22:09.493Z,14.53
2018-12-13T11:23:09.465Z,14.58
2018-12-13T11:24:09.434Z,14.65
2018-12-13T11:25:09.402Z,14.73
2018-12-13T11:26:09.382Z,14.70
2018-12-13T11:27:09.362Z,14.55
2018-12-13T11:28:09.349Z,14.29
2018-12-13T11:29:09.294Z,14.45
2018-12-13T11:30:09.266Z,14.70
2018-12-13T11:31:09.237Z,14.70
2018-12-13T11:32:09.216Z,14.82
2018-12-13T11:33:09.205Z,15.02
2018-12-13T11:34:09.150Z,15.10
2018-12-13T11:35:09.140Z,15.19
2018-12-13T11:36:09.108Z,14.84
2018-12-13T11:37:09.082Z,14.97
2018-12-13T11:38:09.027Z,15.00
2018-12-13T11:39:09.013Z,15.11
2018-12-13T11:40:08.987Z,15.14
2018-12-13T11:41:08.958Z,14.97
2018-12-13T11:42:08.929Z,15.06
2018-12-13T11:43:08.910Z,14.58
2018-12-13T11:44:08.872Z,14.68
2018-12-13T11:45:08.839Z,14.70
2018-12-13T11:46:08.813Z,14.85
2018-12-13T11:47:08.798Z,14.82
2018-12-13T11:48:08.749Z,14.14
2018-12-13T11:49:12.184Z,13.77
2018-12-13T11:50:08.730Z,13.62
2018-12-13T11:51:08.669Z,14.12
2018-12-13T11:52:08.641Z,14.29
2018-12-13T11:53:08.676Z,14.33
2018-12-13T11:54:08.610Z,13.23
2018-12-13T11:55:08.559Z,13.25
2018-12-13T11:56:08.533Z,13.78
2018-12-13T11:57:08.508Z,13.81
2018-12-13T11:58:08.460Z,13.86
2018-12-13T11:59:08.441Z,14.14
2018-12-13T12:00:08.414Z,14.29
2018-12-13T12:01:08.380Z,14.03
2018-12-13T12:02:08.355Z,13.68
2018-12-13T12:03:08.324Z,13.44
2018-12-13T12:04:08.314Z,13.62
2018-12-13T12:05:08.269Z,13.79
2018-12-13T12:06:08.239Z,13.22
2018-12-13T12:07:08.208Z,13.42
2018-12-13T12:08:08.192Z,13.57
2018-12-13T12:09:12.208Z,13.65
2018-12-13T12:10:08.125Z,13.65
2018-12-13T12:11:08.096Z,12.17
2018-12-13T12:12:08.071Z,12.95
2018-12-13T12:13:08.040Z,13.01
2018-12-13T12:14:08.007Z,11.87
2018-12-13T12:15:07.982Z,12.72
2018-12-13T12:16:07.947Z,12.37
2018-12-13T12:17:07.920Z,12.64
2018-12-13T12:18:07.895Z,13.09
2018-12-13T12:19:07.870Z,13.56
2018-12-13T12:20:07.836Z,13.54
2018-12-13T12:21:07.805Z,13.95
2018-12-13T12:22:07.780Z,14.35
2018-12-13T12:23:07.751Z,14.70
2018-12-13T12:24:07.718Z,14.97
2018-12-13T12:25:07.692Z,15.21
2018-12-13T12:26:07.666Z,15.06
2018-12-13T12:27:08.610Z,14.30
2018-12-13T12:28:07.605Z,12.79
2018-12-13T12:29:07.592Z,12.37
2018-12-13T12:30:07.552Z,12.62
2018-12-13T12:31:07.518Z,13.46
2018-12-13T12:32:07.509Z,13.23
2018-12-13T12:33:07.472Z,13.78
2018-12-13T12:34:07.427Z,14.26
2018-12-13T12:35:07.412Z,14.68
2018-12-13T12:36:07.378Z,14.69
2018-12-13T12:37:07.340Z,14.77
2018-12-13T12:38:07.319Z,14.99
2018-12-13T12:39:07.367Z,15.11
2018-12-13T12:40:07.332Z,15.07
2018-12-13T12:41:07.227Z,13.50
2018-12-13T12:42:07.198Z,12.28
2018-12-13T12:43:07.177Z,12.94
2018-12-13T12:44:07.168Z,12.93
2018-12-13T12:45:07.121Z,12.15
2018-12-13T12:46:07.093Z,10.97
2018-12-13T12:47:07.057Z,10.94
2018-12-13T12:48:07.039Z,11.87
2018-12-13T12:49:07.003Z,12.40
2018-12-13T12:50:07.012Z,12.79
2018-12-13T12:51:06.952Z,13.00
2018-12-13T12:52:06.910Z,12.64
2018-12-13T12:53:06.883Z,12.91
2018-12-13T12:54:06.862Z,12.93
2018-12-13T12:55:06.847Z,12.61
2018-12-13T12:56:06.797Z,12.62
2018-12-13T12:57:06.768Z,12.94
2018-12-13T12:58:06.764Z,13.03
2018-12-13T12:59:06.702Z,11.52
2018-12-13T13:00:06.674Z,10.92
2018-12-13T13:01:06.644Z,10.93
2018-12-13T13:02:06.602Z,10.07
2018-12-13T13:03:06.577Z,10.23
2018-12-13T13:04:06.549Z,11.10
2018-12-13T13:05:06.519Z,11.15
2018-12-13T13:06:06.484Z,10.74
2018-12-13T13:07:06.454Z,11.26
2018-12-13T13:08:06.420Z,11.11
2018-12-13T13:09:06.394Z,11.22
2018-12-13T13:10:06.369Z,11.40
2018-12-13T13:11:06.333Z,11.77
2018-12-13T13:12:06.298Z,11.15